METAR Data
IDs: Format: Raw Decoded Include TAF

Data at: 0758 UTC 23 Oct 2018

METAR for:KFFO (Wright-Patterson AFB, OH, US)
Text:KFFO 230656Z AUTO 17005KT 10SM CLR 08/02 A3010 RMK AO2 SLPNO T00750018 $
Temperature: 7.5°C ( 46°F)
Dewpoint: 1.8°C ( 35°F) [RH = 67%]
Pressure (altimeter):30.10 inches Hg (1019.4 mb)
Winds:from the S (170 degrees) at 6 MPH (5 knots; 2.6 m/s)
Visibility:10 or more sm (16+ km)
Ceiling:at least 12,000 feet AGL
Clouds:sky clear below 12,000 feet AGL
QC Flag:automated observation with no human augmentation; SOME DATA ABOVE MAY BE INACCURATE!!!"$" is an indication the sensor requires maintenance.